Terminal Aerodrome Forecast
Issued by NWS Chicago, IL

Home | Current Version | Previous Version | Text Only | Print | Product List | Glossary Off
Versions: 1 2 3 4 5 6 7 8 9 10 11 12 13 14 15 16 17 18 19 20 21 22 23 24 25 26 27 28 29

976
FTUS43 KLOT 210736 AAA
TAFRFD
TAF AMD
KRFD 210736Z 2108/2206 21010KT 6SM -SHRA SCT015 OVC020
      TEMPO 2108/2110 3SM SHRA BR BKN008 OVC015
     FM211000 22007KT 3SM BR BKN007 OVC010
     FM211400 31008KT P6SM SCT012
     FM211800 30007KT P6SM SKC
     FM220100 23005KT P6SM SKC=

USA.gov is the U.S. government's official web portal to all federal, state and local government web resources and services.